Time;durP1;ratioP1;P1;durP2;ratioP2;P2;SDS_P1;SDS_P2;PMS_P1;PMS_P2;Temp;Humidity;BMP_temperature;BMP_pressure;BME280_temperature;BME280_humidity;BME280_pressure;Samples;Min_cycle;Max_cycle;Signal;HPM_P1;HPM_P2
2022/04/30 00:00:10;;;;;;;;;;;;;;;-145.06;0.00;60892.56;4714049;29;19919;-85
2022/04/30 00:02:49;;;;;;;;;;;;;;;-145.06;0.00;60892.56;4712635;29;21118;-84
2022/04/30 00:05:30;;;;;;;;;;;;;;;10.67;0.00;60892.56;4728449;29;19923;-85
2022/04/30 00:08:09;;;;;;;;;;;;;;;10.66;0.00;60892.56;4748045;29;19927;-85
2022/04/30 00:10:50;;;;;;;;;;;;;;;10.64;0.00;60892.56;4727046;29;19923;-85
2022/04/30 00:13:30;;;;;;;;;;;;;;;10.64;0.00;60892.56;4737065;29;19920;-84
2022/04/30 00:16:09;;;;;;;;;;;;;;;10.59;0.00;60892.56;4720392;29;19978;-85
2022/04/30 00:18:48;;;;;;;;;;;;;;;10.60;0.00;60892.56;4715287;29;20247;-85
2022/04/30 00:21:27;;;;;;;;;;;;;;;10.68;0.00;60892.56;4724169;29;20353;-84
2022/04/30 00:24:06;;;;;;;;;;;;;;;10.50;0.00;60892.56;4729270;29;20381;-85
2022/04/30 00:26:45;;;;;;;;;;;;;;;10.52;0.00;60892.56;4724363;29;19923;-85
2022/04/30 00:29:24;;;;;;;;;;;;;;;10.52;0.00;60892.56;4732986;29;19967;-85
2022/04/30 00:32:03;;;;;;;;;;;;;;;10.39;0.00;60892.56;4718758;29;19919;-85
2022/04/30 00:34:43;;;;;;;;;;;;;;;-145.06;0.00;60892.56;4714851;29;20166;-85
2022/04/30 00:37:22;;;;;;;;;;;;;;;-145.06;0.00;60892.56;4713457;29;20009;-84
2022/04/30 00:40:02;;;;;;;;;;;;;;;-145.06;0.00;60892.56;4716906;29;19928;-84
2022/04/30 00:42:41;;;;;;;;;;;;;;;-145.06;0.00;60892.56;4709946;29;21853;-85
2022/04/30 00:45:21;;;;;;;;;;;;;;;-145.06;0.00;60892.56;4739105;29;20033;-85
2022/04/30 00:48:00;;;;;;;;;;;;;;;-145.06;0.00;60892.56;4715997;29;19923;-84
2022/04/30 00:50:41;;;;;;;;;;;;;;;-145.06;0.00;60892.56;4733968;29;19928;-84
2022/04/30 00:53:21;;;;;;;;;;;;;;;-145.06;0.00;60892.56;4732767;29;20597;-85
2022/04/30 00:56:00;;;;;;;;;;;;;;;-145.06;0.00;60892.56;4717114;29;20425;-85
2022/04/30 00:58:45;;;;;;;;;;;;;;;-145.06;0.00;60892.56;4732751;29;19927;-85
2022/04/30 01:01:24;;;;;;;;;;;;;;;-145.06;0.00;60892.56;4717593;29;20162;-84
2022/04/30 01:04:05;;;;;;;;;;;;;;;-145.06;0.00;60892.56;4731960;29;19923;-85
2022/04/30 01:06:51;;;;;;;;;;;;;;;-145.06;0.00;60892.56;4724631;29;20662;-85
2022/04/30 01:09:32;;;;;;;;;;;;;;;-145.06;0.00;60892.56;4726549;29;19924;-85
2022/04/30 01:12:13;;;;;;;;;;;;;;;-145.06;0.00;60892.56;4725254;29;19927;-85
2022/04/30 01:14:52;;;;;;;;;;;;;;;-145.06;0.00;60892.56;4736755;29;19923;-85
2022/04/30 01:17:32;;;;;;;;;;;;;;;-145.06;0.00;60892.56;4733226;29;19927;-85
2022/04/30 01:20:10;;;;;;;;;;;;;;;-145.06;0.00;60892.56;4712613;29;19927;-84
2022/04/30 01:22:52;;;;;;;;;;;;;;;-145.06;0.00;60892.56;4719953;29;19923;-87
2022/04/30 01:25:32;;;;;;;;;;;;;;;-145.06;0.00;60892.56;4715156;29;19931;-84
2022/04/30 01:28:12;;;;;;;;;;;;;;;-145.06;0.00;60892.56;4716991;29;19920;-85
2022/04/30 01:30:51;;;;;;;;;;;;;;;-145.06;0.00;60892.56;4734401;29;19923;-85
2022/04/30 01:39:34;;;;;;;;;;;;;;;-145.06;0.00;60892.56;4732116;29;19919;-84
2022/04/30 01:42:14;;;;;;;;;;;;;;;-145.06;0.00;60892.56;4729103;29;19923;-85
2022/04/30 01:44:53;;;;;;;;;;;;;;;-145.06;0.00;60892.56;4732728;29;20366;-85
2022/04/30 01:47:33;;;;;;;;;;;;;;;-145.06;0.00;60892.56;4734750;29;19919;-85
2022/04/30 01:50:13;;;;;;;;;;;;;;;-145.06;0.00;60892.56;4734283;29;19954;-85
2022/04/30 01:52:52;;;;;;;;;;;;;;;-145.06;0.00;60892.56;4739070;29;19923;-84
2022/04/30 01:55:31;;;;;;;;;;;;;;;-145.06;0.00;60892.56;4713900;29;20002;-84
2022/04/30 01:58:10;;;;;;;;;;;;;;;-145.06;0.00;60892.56;4741758;29;20365;-85
2022/04/30 02:00:49;;;;;;;;;;;;;;;-145.06;0.00;60892.56;4716608;29;20262;-85
2022/04/30 02:03:28;;;;;;;;;;;;;;;-145.06;0.00;60892.56;4718604;29;20365;-84
2022/04/30 02:06:08;;;;;;;;;;;;;;;-145.06;0.00;60892.56;4730671;29;19927;-85
2022/04/30 02:08:47;;;;;;;;;;;;;;;-145.06;0.00;60892.56;4737787;29;19998;-85
2022/04/30 02:11:26;;;;;;;;;;;;;;;-145.06;0.00;60892.56;4711405;29;19928;-84
2022/04/30 02:14:07;;;;;;;;;;;;;;;-145.06;0.00;60892.56;4715278;29;20357;-85
2022/04/30 02:16:46;;;;;;;;;;;;;;;9.38;0.00;60892.56;4735750;29;20707;-85
2022/04/30 02:19:28;;;;;;;;;;;;;;;9.36;0.00;60892.56;4736488;29;19919;-84
2022/04/30 02:22:07;;;;;;;;;;;;;;;9.34;0.00;60892.56;4741781;29;20509;-85
2022/04/30 02:24:47;;;;;;;;;;;;;;;-145.06;0.00;60892.56;4730615;29;19915;-85
2022/04/30 02:27:26;;;;;;;;;;;;;;;-145.06;0.00;60892.56;4727429;29;19919;-84
2022/04/30 02:30:05;;;;;;;;;;;;;;;10.68;0.00;60892.56;4716520;29;19927;-85
2022/04/30 02:32:47;;;;;;;;;;;;;;;9.38;0.00;60892.56;4724608;29;20005;-85
2022/04/30 02:35:28;;;;;;;;;;;;;;;187.52;0.00;60892.56;4718069;29;20014;-85
2022/04/30 02:38:10;;;;;;;;;;;;;;;9.22;0.00;60892.56;4722089;29;19915;-85
2022/04/30 02:40:49;;;;;;;;;;;;;;;9.16;0.00;60892.56;4719455;29;19919;-85
2022/04/30 02:43:28;;;;;;;;;;;;;;;9.38;0.00;60892.56;4723517;29;19919;-85
2022/04/30 02:46:07;;;;;;;;;;;;;;;10.68;0.00;60892.56;4740577;29;19919;-85
2022/04/30 02:48:46;;;;;;;;;;;;;;;-145.06;0.00;60892.56;4739347;29;20381;-85
2022/04/30 02:51:25;;;;;;;;;;;;;;;-145.06;0.00;60892.56;4730855;29;19927;-85
2022/04/30 02:54:04;;;;;;;;;;;;;;;-145.06;0.00;60892.56;4724265;29;19923;-84
2022/04/30 02:56:43;;;;;;;;;;;;;;;-145.06;0.00;60892.56;4739946;29;20342;-85
2022/04/30 03:02:23;;;;;;;;;;;;;;;-145.06;0.00;60892.56;4733598;29;20001;-84
2022/04/30 03:05:03;;;;;;;;;;;;;;;-145.06;0.00;60892.56;4731865;29;20250;-85
2022/04/30 03:07:43;;;;;;;;;;;;;;;-145.06;0.00;60892.56;4715616;29;20374;-85
2022/04/30 03:10:21;;;;;;;;;;;;;;;-145.06;0.00;60892.56;4714656;29;19928;-85
2022/04/30 03:13:00;;;;;;;;;;;;;;;-145.06;0.00;60892.56;4715020;29;19920;-85
2022/04/30 03:15:40;;;;;;;;;;;;;;;-145.06;0.00;60892.56;4714020;29;19919;-85
2022/04/30 03:24:18;;;;;;;;;;;;;;;-145.06;0.00;60892.56;4734704;29;20002;-85
2022/04/30 03:26:56;;;;;;;;;;;;;;;-145.06;0.00;60892.56;4733958;29;19919;-85
2022/04/30 03:29:35;;;;;;;;;;;;;;;-145.06;0.00;60892.56;4727935;29;19932;-86
2022/04/30 03:32:14;;;;;;;;;;;;;;;-145.06;0.00;60892.56;4724355;29;19923;-85
2022/04/30 03:34:53;;;;;;;;;;;;;;;-145.06;0.00;60892.56;4737922;29;20014;-85
2022/04/30 03:37:33;;;;;;;;;;;;;;;-145.06;0.00;60892.56;4712687;29;19923;-86
2022/04/30 03:40:14;;;;;;;;;;;;;;;-145.06;0.00;60892.56;4737339;29;19923;-85
2022/04/30 03:42:53;;;;;;;;;;;;;;;-145.06;0.00;60892.56;4714494;29;19919;-86
2022/04/30 03:45:33;;;;;;;;;;;;;;;-145.06;0.00;60892.56;4710657;29;19958;-85
2022/04/30 03:48:12;;;;;;;;;;;;;;;-145.06;0.00;60892.56;4728715;29;19927;-86
2022/04/30 03:50:52;;;;;;;;;;;;;;;-145.06;0.00;60892.56;4713848;29;19927;-86
2022/04/30 03:53:31;;;;;;;;;;;;;;;-145.06;0.00;60892.56;4713447;29;19919;-86
2022/04/30 03:56:10;;;;;;;;;;;;;;;-145.06;0.00;60892.56;4717027;29;20750;-86
2022/04/30 03:58:49;;;;;;;;;;;;;;;-145.06;0.00;60892.56;4715943;29;20361;-86
2022/04/30 04:01:29;;;;;;;;;;;;;;;-145.06;0.00;60892.56;4728342;29;20021;-86
2022/04/30 04:04:08;;;;;;;;;;;;;;;-145.06;0.00;60892.56;4712954;29;19927;-86
2022/04/30 04:06:47;;;;;;;;;;;;;;;-145.06;0.00;60892.56;4716065;29;20342;-86
2022/04/30 04:09:25;;;;;;;;;;;;;;;-145.06;0.00;60892.56;4736049;29;19927;-86
2022/04/30 04:12:05;;;;;;;;;;;;;;;-145.06;0.00;60892.56;4714668;29;19962;-85
2022/04/30 04:17:42;;;;;;;;;;;;;;;-145.06;0.00;60892.56;4733371;29;19928;-87
2022/04/30 04:20:27;;;;;;;;;;;;;;;-145.06;0.00;60892.56;4716759;29;19931;-86
2022/04/30 04:23:06;;;;;;;;;;;;;;;-145.06;0.00;60892.56;4713039;29;19920;-86
2022/04/30 04:26:00;;;;;;;;;;;;;;;-145.06;0.00;60892.56;4712696;29;19923;-86
2022/04/30 04:28:39;;;;;;;;;;;;;;;-145.06;0.00;60892.56;4731997;29;20010;-85
2022/04/30 04:31:22;;;;;;;;;;;;;;;-145.06;0.00;60892.56;4716765;29;19931;-86
2022/04/30 04:34:00;;;;;;;;;;;;;;;-145.06;0.00;60892.56;4733931;29;19950;-86
2022/04/30 04:36:40;;;;;;;;;;;;;;;-145.06;0.00;60892.56;4718607;29;19927;-86
2022/04/30 04:39:18;;;;;;;;;;;;;;;-145.06;0.00;60892.56;4731882;29;19919;-85
2022/04/30 04:41:57;;;;;;;;;;;;;;;-145.06;0.00;60892.56;4719223;29;19923;-86
2022/04/30 04:44:36;;;;;;;;;;;;;;;-145.06;0.00;60892.56;4716351;29;19924;-85
2022/04/30 04:47:16;;;;;;;;;;;;;;;-145.06;0.00;60892.56;4731078;29;19927;-86
2022/04/30 04:49:55;;;;;;;;;;;;;;;-145.06;0.00;60892.56;4728010;29;20263;-86
2022/04/30 04:52:34;;;;;;;;;;;;;;;-145.06;0.00;60892.56;4722807;29;19923;-86
2022/04/30 04:55:13;;;;;;;;;;;;;;;-145.06;0.00;60892.56;4721636;29;19923;-86
2022/04/30 04:57:51;;;;;;;;;;;;;;;-145.06;0.00;60892.56;4736537;29;20366;-86
2022/04/30 05:00:31;;;;;;;;;;;;;;;-145.06;0.00;60892.56;4725666;29;19919;-85
2022/04/30 05:03:09;;;;;;;;;;;;;;;-145.06;0.00;60892.56;4722078;29;19958;-86
2022/04/30 05:05:48;;;;;;;;;;;;;;;-145.06;0.00;60892.56;4724331;29;19923;-85
2022/04/30 05:08:27;;;;;;;;;;;;;;;-145.06;0.00;60892.56;4723615;29;19920;-86
2022/04/30 05:11:06;;;;;;;;;;;;;;;-145.06;0.00;60892.56;4735248;29;20426;-86
2022/04/30 05:13:45;;;;;;;;;;;;;;;-145.06;0.00;60892.56;4733438;29;19970;-87
2022/04/30 05:16:24;;;;;;;;;;;;;;;-145.06;0.00;60892.56;4717804;29;19927;-86
2022/04/30 05:19:05;;;;;;;;;;;;;;;-145.06;0.00;60892.56;4716575;29;20537;-86
2022/04/30 05:21:44;;;;;;;;;;;;;;;-145.06;0.00;60892.56;4713345;29;19919;-86
2022/04/30 05:24:23;;;;;;;;;;;;;;;-145.06;0.00;60892.56;4727177;29;20292;-86
2022/04/30 05:27:02;;;;;;;;;;;;;;;-145.06;0.00;60892.56;4718789;29;20366;-86
2022/04/30 05:29:41;;;;;;;;;;;;;;;-145.06;0.00;60892.56;4714549;29;19927;-85
2022/04/30 05:32:20;;;;;;;;;;;;;;;-145.06;0.00;60892.56;4737771;29;19919;-86
2022/04/30 05:34:59;;;;;;;;;;;;;;;-145.06;0.00;60892.56;4711460;29;19958;-86
2022/04/30 05:37:40;;;;;;;;;;;;;;;-145.06;0.00;60892.56;4723495;29;19962;-86
2022/04/30 05:40:19;;;;;;;;;;;;;;;-145.06;0.00;60892.56;4737776;29;19919;-86
2022/04/30 05:42:58;;;;;;;;;;;;;;;-145.06;0.00;60892.56;4727487;29;20009;-86
2022/04/30 05:45:37;;;;;;;;;;;;;;;-145.06;0.00;60892.56;4740669;29;20284;-86
2022/04/30 05:48:16;;;;;;;;;;;;;;;-145.06;0.00;60892.56;4740411;29;19919;-86
2022/04/30 05:50:55;;;;;;;;;;;;;;;-145.06;0.00;60892.56;4732560;29;20345;-87
2022/04/30 05:53:34;;;;;;;;;;;;;;;-145.06;0.00;60892.56;4721616;29;20013;-86
2022/04/30 05:56:13;;;;;;;;;;;;;;;-145.06;0.00;60892.56;4747104;29;20002;-87
2022/04/30 05:58:52;;;;;;;;;;;;;;;-145.06;0.00;60892.56;4728703;29;19923;-86
2022/04/30 06:01:31;;;;;;;;;;;;;;;-145.06;0.00;60892.56;4725254;29;19927;-85
2022/04/30 06:04:10;;;;;;;;;;;;;;;-145.06;0.00;60892.56;4731742;29;20259;-87
2022/04/30 06:06:49;;;;;;;;;;;;;;;-145.06;0.00;60892.56;4728322;29;20381;-85
2022/04/30 06:09:28;;;;;;;;;;;;;;;-145.06;0.00;60892.56;4731335;29;20322;-87
2022/04/30 06:12:07;;;;;;;;;;;;;;;-145.06;0.00;60892.56;4714772;29;19916;-87
2022/04/30 06:14:46;;;;;;;;;;;;;;;-145.06;0.00;60892.56;4729846;29;19919;-86
2022/04/30 06:17:26;;;;;;;;;;;;;;;-145.06;0.00;60892.56;4720955;29;19919;-87
2022/04/30 06:20:05;;;;;;;;;;;;;;;-145.06;0.00;60892.56;4737349;29;19919;-86
2022/04/30 06:22:44;;;;;;;;;;;;;;;-145.06;0.00;60892.56;4723864;29;19924;-87
2022/04/30 06:25:23;;;;;;;;;;;;;;;-145.06;0.00;60892.56;4728270;29;19919;-87
2022/04/30 06:28:03;;;;;;;;;;;;;;;-145.06;0.00;60892.56;4716440;29;19923;-86
2022/04/30 06:30:42;;;;;;;;;;;;;;;-145.06;0.00;60892.56;4716265;29;19927;-86
2022/04/30 06:33:21;;;;;;;;;;;;;;;-145.06;0.00;60892.56;4738723;29;19922;-87
2022/04/30 06:36:00;;;;;;;;;;;;;;;-145.06;0.00;60892.56;4737307;29;19919;-86
2022/04/30 06:38:39;;;;;;;;;;;;;;;-145.06;0.00;60892.56;4722209;29;19919;-86
2022/04/30 06:41:19;;;;;;;;;;;;;;;-145.06;0.00;60892.56;4729516;29;19923;-85
2022/04/30 06:43:57;;;;;;;;;;;;;;;-145.06;0.00;60892.56;4720973;29;20006;-88
2022/04/30 06:46:37;;;;;;;;;;;;;;;-145.06;0.00;60892.56;4726752;29;19920;-89
2022/04/30 06:49:16;;;;;;;;;;;;;;;-145.06;0.00;60892.56;4749986;29;19916;-89
2022/04/30 06:51:55;;;;;;;;;;;;;;;-145.06;0.00;60892.56;4759020;29;20033;-87
2022/04/30 06:57:33;;;;;;;;;;;;;;;-145.06;0.00;60892.56;4743305;29;20575;-87
2022/04/30 07:03:11;;;;;;;;;;;;;;;-145.06;0.00;60892.56;4748879;29;19931;-86
2022/04/30 07:05:50;;;;;;;;;;;;;;;-145.06;0.00;60892.56;4725593;29;19919;-86
2022/04/30 07:08:33;;;;;;;;;;;;;;;-145.06;0.00;60892.56;4745156;29;19919;-87
2022/04/30 07:11:11;;;;;;;;;;;;;;;-145.06;0.00;60892.56;4730811;29;19927;-87
2022/04/30 07:13:51;;;;;;;;;;;;;;;-145.06;0.00;60892.56;4729080;29;20006;-86
2022/04/30 07:16:30;;;;;;;;;;;;;;;-145.06;0.00;60892.56;4744522;29;19919;-86
2022/04/30 07:19:09;;;;;;;;;;;;;;;-145.06;0.00;60892.56;4719484;29;19923;-86
2022/04/30 07:21:48;;;;;;;;;;;;;;;-145.06;0.00;60892.56;4723368;29;19995;-86
2022/04/30 07:24:27;;;;;;;;;;;;;;;-145.06;0.00;60892.56;4725644;29;19919;-85
2022/04/30 07:27:06;;;;;;;;;;;;;;;-145.06;0.00;60892.56;4744379;29;20294;-85
2022/04/30 07:29:45;;;;;;;;;;;;;;;-145.06;0.00;60892.56;4740723;29;19923;-87
2022/04/30 07:32:24;;;;;;;;;;;;;;;-145.06;0.00;60892.56;4721355;29;21474;-88
2022/04/30 07:35:04;;;;;;;;;;;;;;;-145.06;0.00;60892.56;4730710;29;19919;-86
2022/04/30 07:37:42;;;;;;;;;;;;;;;-145.06;0.00;60892.56;4722908;29;19958;-86
2022/04/30 07:40:21;;;;;;;;;;;;;;;-145.06;0.00;60892.56;4721025;29;19919;-87
2022/04/30 07:43:00;;;;;;;;;;;;;;;-145.06;0.00;60892.56;4720381;29;19927;-87
2022/04/30 07:45:40;;;;;;;;;;;;;;;-145.06;0.00;60892.56;4718117;29;19943;-87
2022/04/30 07:48:19;;;;;;;;;;;;;;;-145.06;0.00;60892.56;4715117;29;20354;-86
2022/04/30 07:50:59;;;;;;;;;;;;;;;-145.06;0.00;60892.56;4719237;29;20807;-87
2022/04/30 07:53:37;;;;;;;;;;;;;;;-145.06;0.00;60892.56;4725830;29;20493;-85
2022/04/30 07:56:16;;;;;;;;;;;;;;;-145.06;0.00;60892.56;4746499;29;19923;-86
2022/04/30 07:58:56;;;;;;;;;;;;;;;-145.06;0.00;60892.56;4724372;29;19923;-87
2022/04/30 08:01:34;;;;;;;;;;;;;;;-145.06;0.00;60892.56;4722916;29;19919;-87
2022/04/30 08:04:14;;;;;;;;;;;;;;;-145.06;0.00;60892.56;4720621;29;19919;-87
2022/04/30 08:06:52;;;;;;;;;;;;;;;-145.06;0.00;60892.56;4724979;29;20003;-87
2022/04/30 08:09:31;;;;;;;;;;;;;;;-145.06;0.00;60892.56;4730535;29;20421;-87
2022/04/30 08:12:11;;;;;;;;;;;;;;;-145.06;0.00;60892.56;4721144;29;19915;-85
2022/04/30 08:14:50;;;;;;;;;;;;;;;-145.06;0.00;60892.56;4742350;29;19923;-88
2022/04/30 08:17:29;;;;;;;;;;;;;;;-145.06;0.00;60892.56;4722329;29;20038;-87
2022/04/30 08:20:08;;;;;;;;;;;;;;;-145.06;0.00;60892.56;4728872;29;19920;-87
2022/04/30 08:22:47;;;;;;;;;;;;;;;-145.06;0.00;60892.56;4745186;29;19923;-88
2022/04/30 08:25:26;;;;;;;;;;;;;;;-145.06;0.00;60892.56;4730341;29;19926;-87
2022/04/30 08:28:05;;;;;;;;;;;;;;;187.52;0.00;60892.56;4720503;29;20018;-87
2022/04/30 08:30:44;;;;;;;;;;;;;;;10.68;0.00;60892.56;4718351;29;20010;-88
2022/04/30 08:33:23;;;;;;;;;;;;;;;10.68;0.00;60892.56;4724526;29;19919;-88
2022/04/30 08:36:10;;;;;;;;;;;;;;;10.68;0.00;60892.56;4889411;28;19984;-88
2022/04/30 08:38:49;;;;;;;;;;;;;;;-145.06;0.00;60892.56;4871421;28;20007;-88
2022/04/30 08:41:28;;;;;;;;;;;;;;;-145.06;0.00;60892.56;4855712;28;19918;-88
2022/04/30 08:44:07;;;;;;;;;;;;;;;-145.06;0.00;60892.56;4865544;28;19922;-87
2022/04/30 08:46:46;;;;;;;;;;;;;;;-145.06;0.00;60892.56;4861897;28;20029;-88
2022/04/30 08:49:25;;;;;;;;;;;;;;;-145.06;0.00;60892.56;4861148;28;20379;-88
2022/04/30 08:52:04;;;;;;;;;;;;;;;-145.06;0.00;60892.56;4870636;28;19917;-88
2022/04/30 08:54:43;;;;;;;;;;;;;;;-145.06;0.00;60892.56;4863919;28;19965;-89
2022/04/30 08:57:22;;;;;;;;;;;;;;;-145.06;0.00;60892.56;4870192;28;20244;-87
2022/04/30 09:00:04;;;;;;;;;;;;;;;-145.06;0.00;60892.56;4876704;28;20004;-88
2022/04/30 09:02:58;;;;;;;;;;;;;;;-145.06;0.00;60892.56;4864940;28;19917;-89
2022/04/30 09:05:37;;;;;;;;;;;;;;;-145.06;0.00;60892.56;4855279;28;19925;-88
2022/04/30 09:08:16;;;;;;;;;;;;;;;-145.06;0.00;60892.56;4864085;28;19921;-88
2022/04/30 09:11:07;;;;;;;;;;;;;;;-145.06;0.00;60892.56;4844848;28;19928;-88
2022/04/30 09:13:49;;;;;;;;;;;;;;;-145.06;0.00;60892.56;4865745;28;19922;-88
2022/04/30 09:16:28;;;;;;;;;;;;;;;-145.06;0.00;60892.56;4851763;28;19921;-88
2022/04/30 09:19:08;;;;;;;;;;;;;;;-145.06;0.00;60892.56;4860619;28;19965;-88
2022/04/30 09:21:48;;;;;;;;;;;;;;;-145.06;0.00;60892.56;4864338;28;20771;-88
2022/04/30 09:24:27;;;;;;;;;;;;;;;-145.06;0.00;60892.56;4858024;28;19922;-89
2022/04/30 09:27:06;;;;;;;;;;;;;;;11.70;0.00;60892.56;4846929;28;20146;-88
2022/04/30 09:29:45;;;;;;;;;;;;;;;11.78;0.00;60892.56;4854665;28;19921;-89
2022/04/30 09:32:25;;;;;;;;;;;;;;;187.52;0.00;60892.56;4859250;28;19925;-89
2022/04/30 09:38:02;;;;;;;;;;;;;;;11.98;0.00;60892.56;4847649;28;19929;-89
2022/04/30 09:40:50;;;;;;;;;;;;;;;11.94;0.00;60892.56;4846807;28;19921;-88
2022/04/30 09:43:30;;;;;;;;;;;;;;;-145.06;0.00;60892.56;4859502;28;19996;-88
2022/04/30 09:46:10;;;;;;;;;;;;;;;-145.06;0.00;60892.56;4856385;28;20028;-88
2022/04/30 09:54:49;;;;;;;;;;;;;;;-145.06;0.00;60892.56;4836486;28;19926;-88
2022/04/30 09:57:30;;;;;;;;;;;;;;;-145.06;0.00;60892.56;4845186;28;19921;-88
2022/04/30 10:00:10;;;;;;;;;;;;;;;-145.06;0.00;60892.56;4847816;28;19922;-89
2022/04/30 10:02:56;;;;;;;;;;;;;;;-145.06;0.00;60892.56;4838200;28;20004;-88
2022/04/30 10:05:38;;;;;;;;;;;;;;;-145.06;0.00;60892.56;4833719;28;19948;-89
2022/04/30 10:08:17;;;;;;;;;;;;;;;-145.06;0.00;60892.56;4856360;28;19926;-88
2022/04/30 10:11:05;;;;;;;;;;;;;;;-145.06;0.00;60892.56;4837986;28;19947;-88
2022/04/30 10:13:48;;;;;;;;;;;;;;;-145.06;0.00;60892.56;4855145;28;19914;-89
2022/04/30 10:16:28;;;;;;;;;;;;;;;-145.06;0.00;60892.56;4850567;28;19956;-87
2022/04/30 10:19:15;;;;;;;;;;;;;;;-145.06;0.00;60892.56;4841932;28;19921;-87
2022/04/30 10:22:10;;;;;;;;;;;;;;;-145.06;0.00;60892.56;4850794;28;19921;-89
2022/04/30 10:24:50;;;;;;;;;;;;;;;-145.06;0.00;60892.56;4840521;28;20260;-88
2022/04/30 10:27:39;;;;;;;;;;;;;;;13.14;0.00;60892.56;4834082;28;19957;-89
2022/04/30 10:30:27;;;;;;;;;;;;;;;13.19;0.00;60892.56;4834505;28;19921;-88
2022/04/30 10:33:07;;;;;;;;;;;;;;;13.21;0.00;60892.56;4838878;28;19925;-87
2022/04/30 10:35:47;;;;;;;;;;;;;;;13.25;0.00;60892.56;4845790;28;19929;-90
2022/04/30 10:38:26;;;;;;;;;;;;;;;-145.06;0.00;60892.56;4831751;28;19926;-89
2022/04/30 10:41:08;;;;;;;;;;;;;;;-145.06;0.00;60892.56;4841634;28;19965;-89
2022/04/30 10:43:47;;;;;;;;;;;;;;;-145.06;0.00;60892.56;4844025;28;19922;-88
2022/04/30 10:46:34;;;;;;;;;;;;;;;-145.06;0.00;60892.56;4831027;28;19922;-88
2022/04/30 10:49:13;;;;;;;;;;;;;;;-145.06;0.00;60892.56;4842522;28;19922;-88
2022/04/30 10:51:55;;;;;;;;;;;;;;;-145.06;0.00;60892.56;4831718;28;19921;-89
2022/04/30 10:54:38;;;;;;;;;;;;;;;-145.06;0.00;60892.56;4841012;28;20391;-88
2022/04/30 10:57:18;;;;;;;;;;;;;;;-145.06;0.00;60892.56;4831706;28;19926;-87
2022/04/30 10:59:59;;;;;;;;;;;;;;;-145.06;0.00;60892.56;4835810;28;19918;-90
2022/04/30 11:02:38;;;;;;;;;;;;;;;-145.06;0.00;60892.56;4833262;28;20268;-88
2022/04/30 11:05:24;;;;;;;;;;;;;;;-145.06;0.00;60892.56;4843320;28;20020;-88
2022/04/30 11:08:05;;;;;;;;;;;;;;;14.29;0.00;60892.56;4833154;28;19921;-88
2022/04/30 11:10:49;;;;;;;;;;;;;;;14.37;0.00;60892.56;4843318;28;19968;-88
2022/04/30 11:13:28;;;;;;;;;;;;;;;14.41;0.00;60892.56;4832146;28;19921;-88
2022/04/30 11:16:12;;;;;;;;;;;;;;;14.47;0.00;60892.56;4843251;28;20754;-90
2022/04/30 11:18:58;;;;;;;;;;;;;;;14.58;0.00;60892.56;4831055;28;20016;-88
2022/04/30 11:21:38;;;;;;;;;;;;;;;-145.06;0.00;60892.56;4829111;28;19969;-88
2022/04/30 11:24:39;;;;;;;;;;;;;;;-145.06;0.00;60892.56;4829668;28;19921;-89
2022/04/30 11:27:18;;;;;;;;;;;;;;;-145.06;0.00;60892.56;4846146;28;20433;-89
2022/04/30 11:29:57;;;;;;;;;;;;;;;-145.06;0.00;60892.56;4829331;28;19918;-89
2022/04/30 11:32:36;;;;;;;;;;;;;;;-145.06;0.00;60892.56;4843714;28;19921;-89
2022/04/30 11:35:19;;;;;;;;;;;;;;;-145.06;0.00;60892.56;4838718;28;19925;-89
2022/04/30 11:37:58;;;;;;;;;;;;;;;-145.06;0.00;60892.56;4849779;28;19984;-88
2022/04/30 11:40:41;;;;;;;;;;;;;;;-145.06;0.00;60892.56;4849582;28;20360;-89
2022/04/30 11:43:23;;;;;;;;;;;;;;;-145.06;0.00;60892.56;4847974;28;20900;-89
2022/04/30 11:46:03;;;;;;;;;;;;;;;-145.06;0.00;60892.56;4865893;28;19921;-89
2022/04/30 11:48:42;;;;;;;;;;;;;;;-145.06;0.00;60892.56;4861667;28;19985;-90
2022/04/30 11:51:21;;;;;;;;;;;;;;;-145.06;0.00;60892.56;4865622;28;20023;-89
2022/04/30 11:54:01;;;;;;;;;;;;;;;-145.06;0.00;60892.56;4865218;28;19921;-89
2022/04/30 11:56:42;;;;;;;;;;;;;;;-145.06;0.00;60892.56;4866598;28;19932;-90
2022/04/30 11:59:32;;;;;;;;;;;;;;;15.88;0.00;60892.56;4861653;28;20605;-90
2022/04/30 12:02:12;;;;;;;;;;;;;;;-145.06;0.00;60892.56;4867090;28;19917;-90
2022/04/30 12:04:52;;;;;;;;;;;;;;;-145.06;0.00;60892.56;4864545;28;20268;-89
2022/04/30 12:07:49;;;;;;;;;;;;;;;-145.06;0.00;60892.56;4851894;28;20577;-90
2022/04/30 12:10:28;;;;;;;;;;;;;;;-145.06;0.00;60892.56;4860587;28;19961;-89
2022/04/30 12:13:07;;;;;;;;;;;;;;;-145.06;0.00;60892.56;4845480;28;19925;-89
2022/04/30 12:15:46;;;;;;;;;;;;;;;-145.06;0.00;60892.56;4857145;28;20012;-89
2022/04/30 12:24:43;;;;;;;;;;;;;;;-145.06;0.00;60892.56;4851535;28;19960;-89
2022/04/30 12:27:23;;;;;;;;;;;;;;;-145.06;0.00;60892.56;4844678;28;19920;-89
2022/04/30 12:30:12;;;;;;;;;;;;;;;-145.06;0.00;60892.56;4863358;28;20309;-88
2022/04/30 12:32:55;;;;;;;;;;;;;;;-145.06;0.00;60892.56;4864104;28;19925;-89
2022/04/30 12:35:35;;;;;;;;;;;;;;;-145.06;0.00;60892.56;4852277;28;20011;-88
2022/04/30 12:38:15;;;;;;;;;;;;;;;-145.06;0.00;60892.56;4843767;28;19921;-90
2022/04/30 12:40:54;;;;;;;;;;;;;;;-145.06;0.00;60892.56;4855028;28;20011;-90
2022/04/30 12:43:36;;;;;;;;;;;;;;;-145.06;0.00;60892.56;4846390;28;19928;-90
2022/04/30 12:46:22;;;;;;;;;;;;;;;-145.06;0.00;60892.56;4851291;28;20256;-88
2022/04/30 12:49:01;;;;;;;;;;;;;;;-145.06;0.00;60892.56;4857851;28;19921;-89
2022/04/30 12:51:41;;;;;;;;;;;;;;;-145.06;0.00;60892.56;4859967;28;20020;-88
2022/04/30 12:54:20;;;;;;;;;;;;;;;-145.06;0.00;60892.56;4863971;28;19999;-89
2022/04/30 12:57:00;;;;;;;;;;;;;;;-145.06;0.00;60892.56;4851650;28;19921;-88
2022/04/30 12:59:39;;;;;;;;;;;;;;;-145.06;0.00;60892.56;4860074;28;20000;-87
2022/04/30 13:02:19;;;;;;;;;;;;;;;-145.06;0.00;60892.56;4865364;28;19921;-89
2022/04/30 13:04:58;;;;;;;;;;;;;;;-145.06;0.00;60892.56;4861462;28;19921;-87
2022/04/30 13:07:38;;;;;;;;;;;;;;;-145.06;0.00;60892.56;4847280;28;20646;-90
2022/04/30 13:16:13;;;;;;;;;;;;;;;-145.06;0.00;60892.56;4853514;28;19925;-90
2022/04/30 13:18:52;;;;;;;;;;;;;;;-145.06;0.00;60892.56;4850072;28;19917;-89
2022/04/30 13:21:33;;;;;;;;;;;;;;;16.85;0.00;60892.56;4856199;28;19921;-89
2022/04/30 13:24:13;;;;;;;;;;;;;;;-145.06;0.00;60892.56;4856739;28;19921;-90
2022/04/30 13:26:52;;;;;;;;;;;;;;;-145.06;0.00;60892.56;4857984;28;20462;-90
2022/04/30 13:29:31;;;;;;;;;;;;;;;-145.06;0.00;60892.56;4854031;28;19917;-89
2022/04/30 13:32:10;;;;;;;;;;;;;;;-145.06;0.00;60892.56;4856881;28;20274;-90
2022/04/30 13:34:49;;;;;;;;;;;;;;;-145.06;0.00;60892.56;4859102;28;19925;-90
2022/04/30 13:37:28;;;;;;;;;;;;;;;-145.06;0.00;60892.56;4868390;28;19964;-89
2022/04/30 13:40:08;;;;;;;;;;;;;;;17.18;0.00;60892.56;4860449;28;19952;-89
2022/04/30 13:42:47;;;;;;;;;;;;;;;-145.06;0.00;60892.56;4861990;28;20322;-90
2022/04/30 13:45:26;;;;;;;;;;;;;;;-145.06;0.00;60892.56;4858106;28;20121;-89
2022/04/30 13:48:06;;;;;;;;;;;;;;;17.18;0.00;60892.56;4874365;28;20004;-90
2022/04/30 13:50:46;;;;;;;;;;;;;;;-145.06;0.00;60892.56;4858965;28;19917;-90
2022/04/30 13:53:24;;;;;;;;;;;;;;;-145.06;0.00;60892.56;4870726;28;20382;-90
2022/04/30 13:56:05;;;;;;;;;;;;;;;-145.06;0.00;60892.56;4879113;28;19967;-89
2022/04/30 13:58:45;;;;;;;;;;;;;;;-145.06;0.00;60892.56;4876335;28;20195;-89
2022/04/30 14:01:24;;;;;;;;;;;;;;;-145.06;0.00;60892.56;4856093;28;19921;-90
2022/04/30 14:04:03;;;;;;;;;;;;;;;-145.06;0.00;60892.56;4853076;28;20366;-89
2022/04/30 14:06:42;;;;;;;;;;;;;;;-145.06;0.00;60892.56;4867176;28;19925;-89
2022/04/30 14:09:22;;;;;;;;;;;;;;;-145.06;0.00;60892.56;4857827;28;19921;-89
2022/04/30 14:12:01;;;;;;;;;;;;;;;-145.06;0.00;60892.56;4853728;28;20355;-89
2022/04/30 14:14:58;;;;;;;;;;;;;;;-145.06;0.00;60892.56;4852863;28;19924;-89
2022/04/30 14:20:35;;;;;;;;;;;;;;;-145.06;0.00;60892.56;4857234;28;20338;-88
2022/04/30 14:23:14;;;;;;;;;;;;;;;-145.06;0.00;60892.56;4865237;28;19921;-89
2022/04/30 14:25:53;;;;;;;;;;;;;;;-145.06;0.00;60892.56;4866041;28;19921;-88
2022/04/30 14:28:32;;;;;;;;;;;;;;;-145.06;0.00;60892.56;4863274;28;19921;-89
2022/04/30 14:31:12;;;;;;;;;;;;;;;-145.06;0.00;60892.56;4864309;28;19921;-88
2022/04/30 14:33:52;;;;;;;;;;;;;;;-145.06;0.00;60892.56;4866522;28;19921;-88